createdAt,value
2022-09-02T00:01:21.979Z,9.88
2022-09-02T00:03:52.489Z,9.88
2022-09-02T00:06:21.559Z,9.85
2022-09-02T00:08:50.399Z,9.81
2022-09-02T00:11:21.535Z,9.80
2022-09-02T00:13:51.181Z,9.77
2022-09-02T00:16:22.719Z,9.72
2022-09-02T00:18:52.181Z,9.68
2022-09-02T00:21:21.584Z,9.62
2022-09-02T00:23:51.183Z,9.60
2022-09-02T00:26:20.175Z,9.54
2022-09-02T00:28:51.002Z,9.51
2022-09-02T00:31:29.172Z,9.47
2022-09-02T00:33:58.115Z,9.43
2022-09-02T00:36:34.595Z,9.41
2022-09-02T00:39:08.210Z,9.37
2022-09-02T00:41:39.438Z,9.36
2022-09-02T00:44:10.673Z,9.34
2022-09-02T00:46:41.551Z,9.33
2022-09-02T00:49:14.707Z,9.32
2022-09-02T00:51:50.535Z,9.32
2022-09-02T00:54:19.675Z,9.30
2022-09-02T00:56:49.578Z,9.29
2022-09-02T00:59:31.545Z,9.27
2022-09-02T01:02:01.123Z,9.25
2022-09-02T01:04:32.252Z,9.23
2022-09-02T01:07:02.769Z,9.21
2022-09-02T01:09:37.552Z,9.21
2022-09-02T01:12:08.224Z,9.25
2022-09-02T01:14:37.178Z,9.23
2022-09-02T01:17:07.757Z,9.23
2022-09-02T01:19:42.653Z,9.27
2022-09-02T01:22:19.585Z,9.32
2022-09-02T01:24:48.762Z,9.36
2022-09-02T01:27:19.753Z,9.39
2022-09-02T01:29:53.566Z,9.40
2022-09-02T01:32:22.554Z,9.41
2022-09-02T01:34:51.514Z,9.44
2022-09-02T01:37:22.114Z,9.47
2022-09-02T01:39:52.631Z,9.49
2022-09-02T01:42:21.952Z,9.51
2022-09-02T01:44:50.641Z,9.54
2022-09-02T01:47:24.510Z,9.55
2022-09-02T01:49:53.919Z,9.57
2022-09-02T01:52:25.192Z,9.57
2022-09-02T01:54:56.939Z,9.58
2022-09-02T01:57:25.688Z,9.55
2022-09-02T01:59:55.567Z,9.55
2022-09-02T02:02:24.945Z,9.51
2022-09-02T02:04:56.006Z,9.47
2022-09-02T02:07:24.707Z,9.47
2022-09-02T02:09:53.526Z,9.44
2022-09-02T02:12:22.648Z,9.39
2022-09-02T02:14:51.849Z,9.39
2022-09-02T02:17:23.672Z,9.36
2022-09-02T02:19:52.221Z,9.33
2022-09-02T02:22:21.639Z,9.34
2022-09-02T02:24:50.077Z,9.33
2022-09-02T02:27:18.867Z,9.33
2022-09-02T02:29:50.043Z,9.32
2022-09-02T02:32:18.995Z,9.33
2022-09-02T02:34:49.011Z,9.30
2022-09-02T02:37:20.185Z,9.32
2022-09-02T02:39:53.962Z,9.29
2022-09-02T02:42:27.524Z,9.23
2022-09-02T02:44:56.557Z,9.23
2022-09-02T02:47:27.088Z,9.22
2022-09-02T02:49:58.176Z,9.18
2022-09-02T02:52:27.684Z,9.16
2022-09-02T02:54:56.466Z,9.13
2022-09-02T02:57:25.412Z,9.11
2022-09-02T02:59:57.118Z,9.06
2022-09-02T03:02:26.311Z,9.06
2022-09-02T03:04:55.794Z,9.02
2022-09-02T03:07:24.492Z,8.96
2022-09-02T03:09:53.380Z,8.92
2022-09-02T03:12:22.397Z,8.92
2022-09-02T03:14:51.597Z,8.88
2022-09-02T03:17:20.832Z,8.88
2022-09-02T03:19:50.154Z,8.85
2022-09-02T03:22:18.986Z,8.81
2022-09-02T03:24:47.521Z,8.75
2022-09-02T03:27:16.021Z,8.71
2022-09-02T03:29:45.318Z,8.67
2022-09-02T03:32:14.864Z,8.63
2022-09-02T03:34:45.563Z,8.60
2022-09-02T03:37:16.991Z,8.56
2022-09-02T03:39:48.122Z,8.51
2022-09-02T03:42:19.316Z,8.49
2022-09-02T03:44:49.715Z,8.47
2022-09-02T03:47:24.437Z,8.44
2022-09-02T03:49:57.691Z,8.39
2022-09-02T03:52:27.275Z,8.37
2022-09-02T03:54:56.251Z,8.33
2022-09-02T03:57:27.910Z,8.29
2022-09-02T03:59:58.740Z,8.26
2022-09-02T04:02:30.253Z,8.26
2022-09-02T04:04:59.077Z,8.21
2022-09-02T04:07:28.019Z,8.21
2022-09-02T04:09:56.942Z,8.22
2022-09-02T04:12:32.204Z,8.22
2022-09-02T04:15:01.043Z,8.26
2022-09-02T04:17:29.734Z,8.30
2022-09-02T04:19:58.724Z,8.35
2022-09-02T04:22:28.527Z,8.37
2022-09-02T04:24:57.338Z,8.44
2022-09-02T04:27:26.443Z,8.49
2022-09-02T04:29:56.159Z,8.53
2022-09-02T04:32:28.816Z,8.58
2022-09-02T04:34:57.593Z,8.63
2022-09-02T04:37:27.977Z,8.72
2022-09-02T04:39:57.833Z,8.81
2022-09-02T04:42:28.877Z,8.87
2022-09-02T04:44:58.228Z,8.98
2022-09-02T04:47:30.741Z,9.06
2022-09-02T04:49:59.339Z,9.16
2022-09-02T04:52:29.543Z,9.27
2022-09-02T04:54:58.824Z,9.39
2022-09-02T04:57:27.678Z,9.49
2022-09-02T04:59:56.684Z,9.58
2022-09-02T05:02:27.998Z,9.69
2022-09-02T05:04:57.128Z,9.78
2022-09-02T05:07:30.935Z,9.86
2022-09-02T05:10:00.101Z,9.94
2022-09-02T05:12:31.300Z,10.02
2022-09-02T05:15:00.801Z,10.47
2022-09-02T05:17:32.596Z,11.61
2022-09-02T05:20:03.065Z,12.34
2022-09-02T05:22:33.422Z,12.72
2022-09-02T05:25:03.161Z,12.92
2022-09-02T05:27:32.955Z,12.95
2022-09-02T05:30:02.903Z,12.95
2022-09-02T05:32:37.009Z,12.88
2022-09-02T05:35:08.939Z,12.88
2022-09-02T05:37:38.402Z,12.85
2022-09-02T05:40:11.931Z,12.88
2022-09-02T05:42:44.282Z,12.91
2022-09-02T05:45:16.597Z,12.92
2022-09-02T05:47:45.923Z,13.29
2022-09-02T05:50:15.969Z,13.58
2022-09-02T05:52:46.941Z,13.66
2022-09-02T05:55:18.045Z,13.68
2022-09-02T05:57:46.478Z,13.72
2022-09-02T06:00:17.860Z,13.71
2022-09-02T06:02:55.403Z,13.78
2022-09-02T06:05:30.571Z,13.78
2022-09-02T06:08:07.505Z,13.82
2022-09-02T06:10:42.576Z,13.84
2022-09-02T06:13:12.277Z,13.88
2022-09-02T06:15:43.713Z,13.89
2022-09-02T06:18:12.538Z,13.95
2022-09-02T06:20:44.895Z,14.03
2022-09-02T06:23:14.590Z,14.09
2022-09-02T06:25:47.030Z,14.23
2022-09-02T06:28:16.490Z,14.52
2022-09-02T06:30:47.993Z,14.69
2022-09-02T06:33:17.838Z,14.83
2022-09-02T06:35:46.881Z,15.20
2022-09-02T06:38:19.258Z,15.37
2022-09-02T06:40:50.442Z,15.37
2022-09-02T06:43:21.180Z,15.37
2022-09-02T09:46:40.472Z,27.87
2022-09-02T09:49:09.045Z,27.79
2022-09-02T09:51:54.793Z,27.79
2022-09-02T09:54:28.129Z,27.71
2022-09-02T09:56:57.285Z,27.59
2022-09-02T09:59:41.058Z,27.40
2022-09-02T10:02:18.351Z,27.28
2022-09-02T10:04:48.103Z,27.29
2022-09-02T10:07:35.572Z,27.38
2022-09-02T10:10:15.909Z,27.51
2022-09-02T10:12:46.917Z,27.65
2022-09-02T10:15:20.484Z,27.66
2022-09-02T10:17:55.430Z,27.75
2022-09-02T10:20:33.205Z,27.72
2022-09-02T10:23:17.144Z,27.55
2022-09-02T10:25:59.350Z,27.48
2022-09-02T10:28:48.502Z,27.55
2022-09-02T10:31:29.460Z,27.48
2022-09-02T10:34:10.778Z,27.40
2022-09-02T10:36:54.375Z,27.34
2022-09-02T10:39:33.747Z,27.25
2022-09-02T10:42:10.039Z,27.27
2022-09-02T10:44:47.087Z,27.27
2022-09-02T10:47:30.693Z,27.27
2022-09-02T10:50:11.935Z,27.21
2022-09-02T10:52:55.657Z,27.15
2022-09-02T10:55:41.354Z,27.03
2022-09-02T10:58:18.756Z,26.87
2022-09-02T11:00:53.135Z,26.79
2022-09-02T11:03:29.187Z,26.78
2022-09-02T11:06:05.357Z,26.74
2022-09-02T11:08:39.072Z,26.73
2022-09-02T11:11:11.535Z,26.63
2022-09-02T11:13:52.847Z,26.66
2022-09-02T11:16:27.891Z,26.65
2022-09-02T11:19:02.803Z,26.74
2022-09-02T11:21:42.429Z,26.79
2022-09-02T11:24:15.657Z,26.73
2022-09-02T11:26:49.739Z,26.69
2022-09-02T11:29:22.102Z,26.55
2022-09-02T11:32:14.705Z,26.39
2022-09-02T11:34:46.761Z,26.00
2022-09-02T11:37:30.474Z,25.75
2022-09-02T11:40:23.387Z,25.75
2022-09-02T11:43:17.453Z,25.70
2022-09-02T11:46:16.270Z,25.62
2022-09-02T11:49:06.066Z,25.39
2022-09-02T11:51:58.768Z,24.93
2022-09-02T11:54:36.930Z,24.87
2022-09-02T11:57:07.379Z,24.86
2022-09-02T12:00:10.383Z,24.87
2022-09-02T12:02:48.000Z,24.93
2022-09-02T12:05:49.997Z,24.89
2022-09-02T12:08:53.268Z,24.94
2022-09-02T12:11:45.142Z,24.91
2022-09-02T12:14:46.003Z,24.90
2022-09-02T12:17:37.629Z,24.84
2022-09-02T12:20:09.948Z,24.89
2022-09-02T12:22:40.127Z,24.83
2022-09-02T12:25:42.924Z,24.77
2022-09-02T12:28:25.478Z,24.70
2022-09-02T12:31:18.162Z,24.69
2022-09-02T12:33:51.821Z,24.72
2022-09-02T12:36:45.649Z,24.69
2022-09-02T12:39:50.744Z,24.49
2022-09-02T12:42:27.342Z,24.28
2022-09-02T12:45:05.461Z,24.10
2022-09-02T12:47:46.967Z,23.70
2022-09-02T12:50:25.621Z,23.39
2022-09-02T12:53:31.671Z,23.15
2022-09-02T12:56:03.934Z,23.03
2022-09-02T12:58:40.095Z,22.98
2022-09-02T13:01:17.166Z,22.98
2022-09-02T13:04:11.264Z,23.09
2022-09-02T13:07:08.164Z,23.31
2022-09-02T13:10:08.563Z,23.49
2022-09-02T13:13:03.842Z,23.60
2022-09-02T13:15:48.517Z,23.60
2022-09-02T13:18:47.635Z,23.62
2022-09-02T13:21:34.485Z,23.59
2022-09-02T13:24:24.782Z,23.48
2022-09-02T13:27:13.587Z,23.20
2022-09-02T13:30:07.362Z,22.94
2022-09-02T13:32:37.127Z,22.84
2022-09-02T13:35:18.376Z,22.87
2022-09-02T13:38:00.015Z,22.89
2022-09-02T13:40:33.077Z,22.84
2022-09-02T13:43:03.867Z,22.75
2022-09-02T13:45:35.045Z,22.73
2022-09-02T13:48:10.557Z,22.77
2022-09-02T13:50:44.945Z,22.73
2022-09-02T13:53:54.085Z,22.66
2022-09-02T13:56:11.949Z,22.69
2022-09-02T13:58:45.439Z,22.79
2022-09-02T14:01:28.708Z,22.87
2022-09-02T14:04:02.616Z,22.98
2022-09-02T14:06:36.029Z,23.09
2022-09-02T14:09:17.891Z,23.10
2022-09-02T14:11:48.348Z,23.15
2022-09-02T14:14:20.975Z,23.17
2022-09-02T14:16:49.757Z,23.15
2022-09-02T14:19:25.650Z,23.07
2022-09-02T14:21:58.409Z,22.82
2022-09-02T14:24:30.524Z,22.59
2022-09-02T14:27:00.052Z,22.39
2022-09-02T14:29:31.536Z,22.15
2022-09-02T14:32:15.119Z,21.97
2022-09-02T14:34:44.386Z,21.77
2022-09-02T14:37:21.430Z,21.58
2022-09-02T14:40:05.483Z,21.39
2022-09-02T14:42:34.302Z,21.18
2022-09-02T14:45:04.932Z,21.05
2022-09-02T14:47:38.233Z,20.96
2022-09-02T14:50:12.081Z,20.84
2022-09-02T14:52:47.258Z,20.73
2022-09-02T14:55:51.783Z,20.63
2022-09-02T14:58:24.781Z,20.56
2022-09-02T15:00:58.944Z,20.52
2022-09-02T15:03:28.871Z,20.52
2022-09-02T15:05:58.321Z,20.60
2022-09-02T15:08:27.748Z,20.68
2022-09-02T15:11:00.107Z,20.66
2022-09-02T15:13:33.336Z,20.69
2022-09-02T15:16:02.654Z,20.63
2022-09-02T15:18:31.564Z,20.62
2022-09-02T15:21:00.274Z,20.60
2022-09-02T15:23:34.514Z,20.58
2022-09-02T15:26:03.437Z,20.51
2022-09-02T15:28:32.008Z,20.46
2022-09-02T15:31:02.109Z,20.42
2022-09-02T15:33:31.281Z,20.36
2022-09-02T15:36:07.089Z,20.33
2022-09-02T15:38:37.199Z,20.29
2022-09-02T15:41:14.508Z,20.25
2022-09-02T15:43:44.094Z,20.24
2022-09-02T15:46:25.959Z,20.20
2022-09-02T15:49:00.297Z,20.13
2022-09-02T15:51:33.254Z,20.08
2022-09-02T15:54:04.172Z,20.03
2022-09-02T15:56:35.026Z,19.97
2022-09-02T15:59:10.628Z,19.96
2022-09-02T16:01:41.452Z,19.93
2022-09-02T16:04:11.641Z,19.87
2022-09-02T16:06:42.640Z,19.83
2022-09-02T16:09:12.849Z,19.81
2022-09-02T16:11:43.461Z,19.80
2022-09-02T16:14:14.484Z,19.74
2022-09-02T16:16:45.035Z,19.72
2022-09-02T16:19:13.798Z,19.69
2022-09-02T16:21:42.424Z,19.63
2022-09-02T16:24:11.080Z,19.58
2022-09-02T16:26:41.232Z,19.49
2022-09-02T16:29:16.387Z,19.42
2022-09-02T16:32:02.372Z,19.32
2022-09-02T16:34:36.170Z,19.24
2022-09-02T16:37:05.333Z,19.17
2022-09-02T16:39:33.947Z,19.08
2022-09-02T16:42:04.023Z,18.98
2022-09-02T16:44:33.508Z,18.90
2022-09-02T16:47:02.568Z,18.77
2022-09-02T16:49:32.101Z,18.73
2022-09-02T16:52:00.866Z,18.65
2022-09-02T16:54:31.194Z,18.60
2022-09-02T16:57:02.025Z,18.51
2022-09-02T16:59:31.120Z,18.41
2022-09-02T17:02:00.326Z,18.34
2022-09-02T17:04:29.758Z,18.25
2022-09-02T17:06:59.590Z,18.14
2022-09-02T17:09:31.162Z,18.06
2022-09-02T17:12:00.962Z,18.01
2022-09-02T17:14:30.425Z,17.96
2022-09-02T17:16:59.058Z,17.89
2022-09-02T17:19:32.389Z,17.80
2022-09-02T17:22:01.499Z,17.72
2022-09-02T17:24:31.098Z,17.65
2022-09-02T17:27:01.615Z,17.64
2022-09-02T17:32:20.591Z,17.51
2022-09-02T17:34:50.749Z,17.45
2022-09-02T17:37:19.270Z,17.39
2022-09-02T17:39:49.732Z,17.34
2022-09-02T17:42:19.585Z,17.27
2022-09-02T17:44:48.239Z,17.18
2022-09-02T17:47:19.390Z,17.10
2022-09-02T17:49:49.473Z,16.99
2022-09-02T17:52:23.466Z,16.87
2022-09-02T17:54:53.241Z,16.76
2022-09-02T17:57:29.800Z,16.68
2022-09-02T18:00:07.384Z,16.55
2022-09-02T18:03:13.278Z,16.41
2022-09-02T18:06:09.924Z,16.28
2022-09-02T18:08:48.625Z,16.14
2022-09-02T18:11:18.275Z,16.04
2022-09-02T18:13:57.286Z,15.94
2022-09-02T18:16:33.977Z,15.85
2022-09-02T18:19:13.149Z,15.75
2022-09-02T18:22:05.354Z,15.66
2022-09-02T18:24:51.402Z,15.54
2022-09-02T18:27:32.638Z,15.47
2022-09-02T18:30:08.077Z,15.37
2022-09-02T18:32:54.666Z,15.27
2022-09-02T18:35:34.412Z,15.17
2022-09-02T18:38:13.743Z,15.11
2022-09-02T18:40:51.940Z,15.00
2022-09-02T18:43:30.685Z,14.90
2022-09-02T18:46:01.947Z,14.82
2022-09-02T18:48:34.506Z,14.74
2022-09-02T18:51:09.941Z,14.65
2022-09-02T18:53:44.738Z,14.57
2022-09-02T18:56:14.352Z,14.47
2022-09-02T18:58:49.324Z,14.37
2022-09-02T19:01:23.493Z,14.30
2022-09-02T19:03:52.588Z,14.23
2022-09-02T19:06:22.851Z,14.14
2022-09-02T19:08:56.982Z,14.09
2022-09-02T19:11:27.807Z,14.00
2022-09-02T19:14:02.337Z,13.92
2022-09-02T19:16:34.483Z,13.84
2022-09-02T19:19:04.288Z,13.76
2022-09-02T19:21:40.333Z,13.72
2022-09-02T19:24:14.697Z,13.62
2022-09-02T19:26:44.630Z,13.58
2022-09-02T19:29:16.023Z,13.47
2022-09-02T19:31:46.412Z,13.42
2022-09-02T19:34:16.428Z,13.34
2022-09-02T19:36:48.252Z,13.31
2022-09-02T19:39:18.324Z,13.22
2022-09-02T19:41:48.507Z,13.14
2022-09-02T19:44:17.156Z,13.10
2022-09-02T19:47:42.170Z,13.00
2022-09-02T19:49:38.912Z,12.96
2022-09-02T19:52:07.681Z,12.91
2022-09-02T19:54:36.365Z,12.80
2022-09-02T19:57:05.125Z,12.78
2022-09-02T19:59:33.754Z,12.69
2022-09-02T20:02:04.059Z,12.64
2022-09-02T20:04:32.718Z,12.57
2022-09-02T20:07:01.636Z,12.55
2022-09-02T20:09:30.499Z,12.54
2022-09-02T20:12:00.600Z,12.50
2022-09-02T20:14:30.508Z,12.47
2022-09-02T20:17:03.188Z,12.47
2022-09-02T20:19:32.666Z,12.45
2022-09-02T20:22:01.667Z,12.48
2022-09-02T20:24:32.151Z,12.44
2022-09-02T20:27:14.733Z,12.44
2022-09-02T20:29:59.803Z,12.45
2022-09-02T20:32:43.942Z,12.44
2022-09-02T20:35:32.620Z,12.45
2022-09-02T20:38:18.769Z,12.47
2022-09-02T20:40:57.538Z,12.51
2022-09-02T20:44:06.129Z,12.52
2022-09-02T20:46:53.291Z,12.51
2022-09-02T20:49:36.915Z,12.52
2022-09-02T20:52:13.140Z,12.51
2022-09-02T20:54:54.779Z,12.54
2022-09-02T20:57:34.099Z,12.52
2022-09-02T21:00:08.942Z,12.50
2022-09-02T21:02:45.252Z,12.44
2022-09-02T21:05:22.736Z,12.43
2022-09-02T21:08:00.336Z,12.41
2022-09-02T21:10:35.793Z,12.36
2022-09-02T21:13:10.883Z,12.33
2022-09-02T21:15:46.276Z,12.30
2022-09-02T21:18:20.718Z,12.27
2022-09-02T21:20:55.629Z,12.22
2022-09-02T21:23:30.582Z,12.19
2022-09-02T21:26:04.899Z,12.15
2022-09-02T21:28:40.462Z,12.09
2022-09-02T21:31:18.483Z,12.06
2022-09-02T21:33:48.536Z,12.02
2022-09-02T21:36:31.465Z,11.99
2022-09-02T21:39:09.302Z,11.95
2022-09-02T21:41:43.080Z,11.92
2022-09-02T21:44:22.197Z,11.86
2022-09-02T21:47:00.917Z,11.81
2022-09-02T21:49:44.358Z,11.74
2022-09-02T21:52:26.103Z,11.68
2022-09-02T21:55:09.286Z,11.61
2022-09-02T21:57:56.543Z,11.54
2022-09-02T22:00:25.883Z,11.49
2022-09-02T22:03:03.561Z,11.43
2022-09-02T22:05:48.099Z,11.40
2022-09-02T22:08:29.504Z,11.37
2022-09-02T22:11:08.193Z,11.33
2022-09-02T22:13:41.401Z,11.31
2022-09-02T22:16:21.271Z,11.26
2022-09-02T22:18:59.460Z,11.22
2022-09-02T22:21:39.301Z,11.19
2022-09-02T22:24:09.133Z,11.13
2022-09-02T22:26:41.146Z,11.09
2022-09-02T22:29:19.562Z,11.06
2022-09-02T22:31:55.215Z,11.02
2022-09-02T22:34:26.165Z,10.98
2022-09-02T22:37:00.476Z,10.95
2022-09-02T22:39:41.298Z,10.89
2022-09-02T22:42:20.703Z,10.81
2022-09-02T22:45:14.039Z,10.78
2022-09-02T22:48:09.985Z,10.72
2022-09-02T22:51:01.739Z,10.67
2022-09-02T22:53:31.052Z,10.63
2022-09-02T22:56:02.491Z,10.60
2022-09-02T22:58:57.337Z,10.54
2022-09-02T23:01:30.601Z,10.50
2022-09-02T23:04:13.057Z,10.48
2022-09-02T23:06:43.317Z,10.44
2022-09-02T23:09:14.371Z,10.40
2022-09-02T23:11:55.605Z,10.37
2022-09-02T23:14:34.466Z,10.29
2022-09-02T23:17:22.792Z,10.26
2022-09-02T23:20:05.940Z,10.23
2022-09-02T23:22:53.243Z,10.22
2022-09-02T23:25:37.209Z,10.17
2022-09-02T23:28:14.876Z,10.16
2022-09-02T23:31:00.663Z,10.12
2022-09-02T23:33:41.727Z,10.08
2022-09-02T23:36:16.919Z,10.02
2022-09-02T23:39:04.361Z,9.99
2022-09-02T23:41:35.695Z,9.98
2022-09-02T23:44:12.295Z,9.95
2022-09-02T23:46:53.774Z,9.92
2022-09-02T23:49:34.798Z,9.88
2022-09-02T23:52:14.218Z,9.82
2022-09-02T23:54:58.861Z,9.77
2022-09-02T23:57:43.023Z,9.72
